Terminal Aerodrome Forecast
Issued by NWS Mt. Holly, NJ

Current Version | Previous Version | Text Only | Print | Product List | Glossary On
Versions: 1 2 3 4 5 6 7 8 9 10 11 12 13 14 15 16 17 18 19
000
FTUS41 KPHI 070414 AAC
TAFTTN
TAF AMD
KTTN 070414Z 0704/0724 16007KT P6SM OVC012
     FM070800 18007KT 5SM BR OVC009
     FM071400 24008KT P6SM SCT030 BKN050=

USA.gov is the U.S. government's official web portal to all federal, state and local government web resources and services.